sensor_id;sensor_type;location;lat;lon;timestamp;pressure;altitude;pressure_sealevel;temperature;humidity
61740;BME280;47645;45.288;12.038;2023-08-01T00:00:39;1008.4880786083368;;;24.912890625;84.15631225594848
61740;BME280;47645;45.288;12.038;2023-08-01T00:10:41;1008.2915632065256;;;24.3828125;89.50444175799214
61740;BME280;47645;45.288;12.038;2023-08-01T00:20:42;1008.2265006489298;;;24.698828125;85.96054062569755
61740;BME280;47645;45.288;12.038;2023-08-01T00:30:43;1008.1161905356436;;;24.80078125;84.36297380189025
61740;BME280;47645;45.288;12.038;2023-08-01T00:40:44;1008.0133342219603;;;24.7701171875;83.70704740664553
61740;BME280;47645;45.288;12.038;2023-08-01T00:50:46;1007.9806363000914;;;24.4234375;86.03568215656679
61740;BME280;47645;45.288;12.038;2023-08-01T01:00:48;1007.8189186849202;;;24.515234375;84.95911381101944
61740;BME280;47645;45.288;12.038;2023-08-01T01:10:49;1007.6895420697663;;;24.4337890625;88.18347154834454
61740;BME280;47645;45.288;12.038;2023-08-01T01:20:50;1007.5276006741492;;;24.1228515625;88.41473878713698
61740;BME280;47645;45.288;12.038;2023-08-01T01:30:54;1007.4351802260722;;;23.883203125;93.65093151990524
61740;BME280;47645;45.288;12.038;2023-08-01T01:40:53;1007.3296961252495;;;23.9240234375;95.48179517979274
61740;BME280;47645;45.288;12.038;2023-08-01T01:50:54;1007.2058800857433;;;23.9494140625;100
61740;BME280;47645;45.288;12.038;2023-08-01T02:00:56;1007.026986157048;;;23.689453125;100
61740;BME280;47645;45.288;12.038;2023-08-01T02:10:58;1007.02676445668;;;24.0513671875;100
61740;BME280;47645;45.288;12.038;2023-08-01T02:20:58;1006.9347129302271;;;24.3623046875;88.48592327509108
61740;BME280;47645;45.288;12.038;2023-08-01T02:31:00;1006.7477029351154;;;24.39296875;87.47768022469339
61740;BME280;47645;45.288;12.038;2023-08-01T02:41:02;1006.6565426675448;;;23.980078125;91.96489098898844
61740;BME280;47645;45.288;12.038;2023-08-01T02:51:03;1006.419364654652;;;24.204296875;87.82968413314113
61740;BME280;47645;45.288;12.038;2023-08-01T03:01:06;1006.4015776945862;;;24.0259765625;93.2752556516253
61740;BME280;47645;45.288;12.038;2023-08-01T03:11:06;1006.604734072514;;;23.679296875;100
61740;BME280;47645;45.288;12.038;2023-08-01T03:21:07;1006.6440437777289;;;23.465234375;100
61740;BME280;47645;45.288;12.038;2023-08-01T03:31:08;1006.539492672812;;;23.4294921875;95.39290783314141
61740;BME280;47645;45.288;12.038;2023-08-01T03:41:10;1006.496009374665;;;23.57734375;95.05890756925163
61740;BME280;47645;45.288;12.038;2023-08-01T03:51:11;1006.4594125240177;;;23.6232421875;100
61740;BME280;47645;45.288;12.038;2023-08-01T04:01:12;1006.5135172582836;;;23.689453125;100
61740;BME280;47645;45.288;12.038;2023-08-01T04:11:14;1006.3287477340695;;;23.388671875;100
61740;BME280;47645;45.288;12.038;2023-08-01T04:21:15;1006.0618997197925;;;23.4244140625;100
61740;BME280;47645;45.288;12.038;2023-08-01T04:31:16;1005.9834647089483;;;23.6486328125;100
61740;BME280;47645;45.288;12.038;2023-08-01T04:41:18;1005.9987557128401;;;23.45;100
61740;BME280;47645;45.288;12.038;2023-08-01T04:51:19;1005.978439578295;;;23.7251953125;100
61740;BME280;47645;45.288;12.038;2023-08-01T05:01:20;1006.1611858530632;;;23.776171875;100
61740;BME280;47645;45.288;12.038;2023-08-01T05:11:22;1006.2149496040993;;;23.8169921875;100
61740;BME280;47645;45.288;12.038;2023-08-01T05:21:23;1006.1928234220821;;;23.9392578125;100
61740;BME280;47645;45.288;12.038;2023-08-01T05:31:24;1005.8690649766706;;;23.98515625;100
61740;BME280;47645;45.288;12.038;2023-08-01T05:41:26;1005.6114217320974;;;24.10234375;100
61740;BME280;47645;45.288;12.038;2023-08-01T05:51:27;1005.602887711103;;;24.7396484375;100
61740;BME280;47645;45.288;12.038;2023-08-01T06:01:28;1005.5333513427976;;;25.1779296875;100
61740;BME280;47645;45.288;12.038;2023-08-01T06:11:30;1005.6624130108164;;;25.922265625;100
61740;BME280;47645;45.288;12.038;2023-08-01T06:21:31;1005.5398251610433;;;26.325;100
61740;BME280;47645;45.288;12.038;2023-08-01T06:31:32;1005.4999469095825;;;26.9927734375;98.079131620943
61740;BME280;47645;45.288;12.038;2023-08-01T06:41:34;1005.4650691934601;;;27.3341796875;95.22052763404758
61740;BME280;47645;45.288;12.038;2023-08-01T06:51:35;1005.3539802981082;;;27.5025390625;94.78144216661512
61740;BME280;47645;45.288;12.038;2023-08-01T07:01:41;1005.2766303003782;;;27.9205078125;92.61195026901936
61740;BME280;47645;45.288;12.038;2023-08-01T07:11:38;1005.2621609435855;;;28.6646484375;89.86136432222891
61740;BME280;47645;45.288;12.038;2023-08-01T07:21:39;1005.2977889953777;;;28.8380859375;89.8683208432626
61740;BME280;47645;45.288;12.038;2023-08-01T07:31:41;1005.3035069848572;;;28.680078125;90.46916919395713
61740;BME280;47645;45.288;12.038;2023-08-01T07:41:42;1005.1926882247225;;;28.3078125;91.55147595380355
61740;BME280;47645;45.288;12.038;2023-08-01T07:51:44;1005.2312546769056;;;28.0326171875;92.07316905458086
61740;BME280;47645;45.288;12.038;2023-08-01T08:01:45;1005.2643213187562;;;27.4462890625;92.94987569674716
61740;BME280;47645;45.288;12.038;2023-08-01T08:11:47;1005.2644402152453;;;27.0998046875;92.46091666507171
61740;BME280;47645;45.288;12.038;2023-08-01T08:21:48;1005.0408948319815;;;27.2986328125;91.33045016288226
61740;BME280;47645;45.288;12.038;2023-08-01T08:31:50;1004.9508938946914;;;28.0734375;87.27156078359434
61740;BME280;47645;45.288;12.038;2023-08-01T08:41:53;1004.7359879391389;;;27.4005859375;88.27750743073064
61740;BME280;47645;45.288;12.038;2023-08-01T08:51:54;1004.7343409165297;;;27.5228515625;86.09359778721041
61740;BME280;47645;45.288;12.038;2023-08-01T09:01:54;1004.5890292952387;;;28.292578125;82.59997796132117
61740;BME280;47645;45.288;12.038;2023-08-01T09:11:58;1004.4414851033072;;;28.8634765625;80.67514375110053
61740;BME280;47645;45.288;12.038;2023-08-01T09:21:58;1004.2396984481903;;;28.9654296875;80.23777205834193
61740;BME280;47645;45.288;12.038;2023-08-01T09:31:59;1004.2201847923351;;;28.6697265625;80.83752862634508
61740;BME280;47645;45.288;12.038;2023-08-01T09:42:02;1004.0285435977712;;;28.883984375;81.6187772892497
61740;BME280;47645;45.288;12.038;2023-08-01T09:52:03;1004.0115081144804;;;29.526171875;78.76978807283272
61740;BME280;47645;45.288;12.038;2023-08-01T10:02:05;1003.9409500007155;;;29.8984375;77.75516431532976
61740;BME280;47645;45.288;12.038;2023-08-01T10:12:07;1003.8438173639003;;;30.2857421875;77.56574753107863
61740;BME280;47645;45.288;12.038;2023-08-01T10:22:08;1003.84472614191;;;31.1626953125;71.83515337000829
61740;BME280;47645;45.288;12.038;2023-08-01T10:32:10;1003.7588417129867;;;31.646875;69.73162870527611
61740;BME280;47645;45.288;12.038;2023-08-01T10:42:12;1003.6033501594509;;;32.019140625;65.96801994534165
61740;BME280;47645;45.288;12.038;2023-08-01T10:52:17;1003.5121381065854;;;31.7642578125;67.40401432923683
61740;BME280;47645;45.288;12.038;2023-08-01T11:02:20;1003.422896996339;;;33.058984375;63.03199517518079
61740;BME280;47645;45.288;12.038;2023-08-01T11:12:17;1003.4128876770035;;;33.038671875;63.34805227380089
61740;BME280;47645;45.288;12.038;2023-08-01T11:22:18;1003.3311318807131;;;32.8857421875;63.98565255905943
61740;BME280;47645;45.288;12.038;2023-08-01T11:32:21;1003.373444053045;;;32.855078125;63.15754998084823
61740;BME280;47645;45.288;12.038;2023-08-01T11:42:21;1003.1178618908167;;;31.8662109375;67.68404164005022
61740;BME280;47645;45.288;12.038;2023-08-01T11:52:25;1003.0093153072885;;;31.330859375;69.45570056139043
61740;BME280;47645;45.288;12.038;2023-08-01T12:02:28;1002.7404573059367;;;31.9884765625;68.67789789548695
61740;BME280;47645;45.288;12.038;2023-08-01T12:12:28;1002.7915380238767;;;32.421875;65.06452220204605
61740;BME280;47645;45.288;12.038;2023-08-01T12:22:29;1002.6204198093299;;;31.92734375;66.89239180847467
61740;BME280;47645;45.288;12.038;2023-08-01T12:32:31;1002.571142526405;;;31.85078125;71.12237875618227
61740;BME280;47645;45.288;12.038;2023-08-01T12:42:32;1002.5020246014191;;;32.25859375;70.53560173812147
61740;BME280;47645;45.288;12.038;2023-08-01T12:52:34;1002.4989749706759;;;32.9826171875;65.81308883709188
61740;BME280;47645;45.288;12.038;2023-08-01T13:02:36;1002.2459213664803;;;33.44140625;64.76309164288438
61740;BME280;47645;45.288;12.038;2023-08-01T13:12:38;1002.1237195848518;;;34.369140625;60.26065937767171
61740;BME280;47645;45.288;12.038;2023-08-01T13:22:40;1002.1358231360758;;;34.7259765625;58.111056946058106
61740;BME280;47645;45.288;12.038;2023-08-01T13:32:42;1001.8641777588673;;;35.24609375;55.95570079170798
61740;BME280;47645;45.288;12.038;2023-08-01T13:42:43;1001.7659026852156;;;35.4806640625;55.21173985686686
61740;BME280;47645;45.288;12.038;2023-08-01T13:52:46;1001.7502114835602;;;35.7916015625;54.25015274642052
61740;BME280;47645;45.288;12.038;2023-08-01T14:02:49;1001.6616602237236;;;36.755078125;52.50087017871014
61740;BME280;47645;45.288;12.038;2023-08-01T14:12:49;1001.7334873500444;;;37.219140625;50.85899642460489
61740;BME280;47645;45.288;12.038;2023-08-01T14:22:51;1001.6151965815832;;;37.2904296875;49.67176775657225
61740;BME280;47645;45.288;12.038;2023-08-01T14:32:59;1001.5434616236073;;;37.1119140625;49.42561824341356
61740;BME280;47645;45.288;12.038;2023-08-01T14:42:55;1001.5346569589195;;;36.821484375;51.095880961014366
61740;BME280;47645;45.288;12.038;2023-08-01T14:52:57;1001.4731271266884;;;36.5154296875;46.08616479143731
61740;BME280;47645;45.288;12.038;2023-08-01T15:02:59;1001.3415609908493;;;36.8671875;36.32478271278864
61740;BME280;47645;45.288;12.038;2023-08-01T15:13:01;1001.2957884393592;;;36.969140625;45.80394482271929
61740;BME280;47645;45.288;12.038;2023-08-01T15:23:03;1001.2065798927886;;;36.530859375;45.842698830503195
61740;BME280;47645;45.288;12.038;2023-08-01T15:33:05;1001.1561669135178;;;36.4185546875;44.82617224388066
61740;BME280;47645;45.288;12.038;2023-08-01T15:43:07;1001.0577572569117;;;35.5927734375;45.00037855281719
61740;BME280;47645;45.288;12.038;2023-08-01T15:53:09;1001.0296709297248;;;35.3328125;50.63081362905433
61740;BME280;47645;45.288;12.038;2023-08-01T16:03:11;1000.8938607685242;;;34.8892578125;49.55321985854267
61740;BME280;47645;45.288;12.038;2023-08-01T16:13:13;1000.9637643790646;;;34.6802734375;45.421712600316745
61740;BME280;47645;45.288;12.038;2023-08-01T16:23:15;1001.0283893736107;;;34.3130859375;51.268373100288564
61740;BME280;47645;45.288;12.038;2023-08-01T16:33:18;1001.115095217356;;;34.3896484375;51.68900515609329
61740;BME280;47645;45.288;12.038;2023-08-01T16:43:19;1001.1789671235398;;;34.1703125;53.206294085280575
61740;BME280;47645;45.288;12.038;2023-08-01T16:53:21;1001.2098788303847;;;33.8900390625;54.72587116177579
61740;BME280;47645;45.288;12.038;2023-08-01T17:03:23;1001.1287035972802;;;33.6197265625;57.57884686895352
61740;BME280;47645;45.288;12.038;2023-08-01T17:13:25;1001.0731120262502;;;33.13046875;57.03367300468799
61740;BME280;47645;45.288;12.038;2023-08-01T17:23:26;1001.0041937365007;;;32.824609375;59.54807556443381
61740;BME280;47645;45.288;12.038;2023-08-01T17:33:28;1001.0163494911434;;;32.4880859375;60.3440730565365
61740;BME280;47645;45.288;12.038;2023-08-01T17:43:30;1000.9950740444538;;;32.136328125;63.51637000670757
61740;BME280;47645;45.288;12.038;2023-08-01T17:53:32;1001.0676001687197;;;31.845703125;64.1867574178338
61740;BME280;47645;45.288;12.038;2023-08-01T18:03:35;1001.2089620843124;;;31.5806640625;63.771221058719206
61740;BME280;47645;45.288;12.038;2023-08-01T18:13:36;1001.2558716526383;;;31.157421875;65.78224943520001
61740;BME280;47645;45.288;12.038;2023-08-01T18:23:38;1001.3560359622564;;;30.93828125;66.3776803006464
61740;BME280;47645;45.288;12.038;2023-08-01T18:33:39;1001.4190367245177;;;30.4896484375;67.77469698222463
61740;BME280;47645;45.288;12.038;2023-08-01T18:43:41;1001.6513168386667;;;29.9697265625;70.97787855916205
61740;BME280;47645;45.288;12.038;2023-08-01T18:53:43;1001.7886316541152;;;29.8015625;70.90921791562128
61740;BME280;47645;45.288;12.038;2023-08-01T19:03:45;1001.8981901118024;;;29.526171875;72.4361000765658
61740;BME280;47645;45.288;12.038;2023-08-01T19:13:46;1002.1378782463929;;;29.194921875;73.2609706449779
61740;BME280;47645;45.288;12.038;2023-08-01T19:23:48;1002.2751863772781;;;28.914453125;74.3693592155882
61740;BME280;47645;45.288;12.038;2023-08-01T19:33:49;1002.5908616827252;;;27.971484375;72.40501313337342
61740;BME280;47645;45.288;12.038;2023-08-01T19:43:51;1002.8273434515529;;;26.74296875;88.0544861588383
61740;BME280;47645;45.288;12.038;2023-08-01T19:53:53;1002.9188661440857;;;26.26875;96.73412561308548
61740;BME280;47645;45.288;12.038;2023-08-01T20:03:56;1002.8553187625891;;;25.738671875;99.29224622681613
61740;BME280;47645;45.288;12.038;2023-08-01T20:13:57;1002.9874075576878;;;26.02421875;94.33909398336063
61740;BME280;47645;45.288;12.038;2023-08-01T20:23:57;1003.1766967503569;;;25.448046875;94.04621516853831
61740;BME280;47645;45.288;12.038;2023-08-01T20:33:59;1003.2031063012477;;;25.835546875;91.02476133322307
61740;BME280;47645;45.288;12.038;2023-08-01T20:44:01;1003.3355818660993;;;25.2595703125;91.80680962068712
61740;BME280;47645;45.288;12.038;2023-08-01T20:54:03;1003.3909645219569;;;25.0861328125;94.69944650437988
61740;BME280;47645;45.288;12.038;2023-08-01T21:04:04;1003.5497833056518;;;24.816015625;97.69536926841299
61740;BME280;47645;45.288;12.038;2023-08-01T21:14:06;1003.7895454304838;;;25.1525390625;94.60459249999205
61740;BME280;47645;45.288;12.038;2023-08-01T21:24:08;1003.837367490612;;;24.19921875;100
61740;BME280;47645;45.288;12.038;2023-08-01T21:34:08;1003.9544947414001;;;23.9189453125;100
61740;BME280;47645;45.288;12.038;2023-08-01T21:44:10;1003.9615062276458;;;24.403125;98.17337552366219
61740;BME280;47645;45.288;12.038;2023-08-01T21:54:12;1004.2999086314045;;;23.7302734375;100
61740;BME280;47645;45.288;12.038;2023-08-01T22:04:13;1004.3508061647537;;;24.5458984375;95.73060554021168
61740;BME280;47645;45.288;12.038;2023-08-01T22:14:14;1004.4550285826344;;;23.6029296875;100
61740;BME280;47645;45.288;12.038;2023-08-01T22:24:16;1004.2106171980284;;;23.1033203125;100
61740;BME280;47645;45.288;12.038;2023-08-01T22:34:18;1004.4278082437761;;;24.0208984375;98.42668338696858
61740;BME280;47645;45.288;12.038;2023-08-01T22:44:19;1004.4420681328411;;;22.7771484375;100
61740;BME280;47645;45.288;12.038;2023-08-01T22:54:20;1004.4066345537228;;;23.0982421875;100
61740;BME280;47645;45.288;12.038;2023-08-01T23:04:22;1004.5348924064383;;;23.067578125;100
61740;BME280;47645;45.288;12.038;2023-08-01T23:14:23;1004.4949076848535;;;23.475390625;100
61740;BME280;47645;45.288;12.038;2023-08-01T23:24:25;1004.571205214286;;;22.4611328125;100
61740;BME280;47645;45.288;12.038;2023-08-01T23:34:27;1004.7050314319531;;;22.1806640625;100
61740;BME280;47645;45.288;12.038;2023-08-01T23:44:30;1004.7729427223937;;;21.9359375;100
61740;BME280;47645;45.288;12.038;2023-08-01T23:54:29;1004.7851923102702;;;21.721875;100
